sensor_id;sensor_type;location;lat;lon;timestamp;pressure;altitude;pressure_sealevel;temperature;humidity
7668;BME280;3876;42.204;24.686;2023-02-28T00:02:10;99932.84;;;10.22;99.12
7668;BME280;3876;42.204;24.686;2023-02-28T00:04:36;99934.56;;;10.23;98.94
7668;BME280;3876;42.204;24.686;2023-02-28T00:07:03;99942.22;;;10.23;99.50
7668;BME280;3876;42.204;24.686;2023-02-28T00:09:30;99941.31;;;10.27;98.80
7668;BME280;3876;42.204;24.686;2023-02-28T00:11:57;99938.63;;;10.33;98.41
7668;BME280;3876;42.204;24.686;2023-02-28T00:14:24;99946.16;;;10.39;98.04
7668;BME280;3876;42.204;24.686;2023-02-28T00:16:52;99952.09;;;10.43;97.63
7668;BME280;3876;42.204;24.686;2023-02-28T00:19:19;99952.09;;;10.43;98.02
7668;BME280;3876;42.204;24.686;2023-02-28T00:21:45;99948.59;;;10.45;98.07
7668;BME280;3876;42.204;24.686;2023-02-28T00:24:12;99950.25;;;10.48;97.49
7668;BME280;3876;42.204;24.686;2023-02-28T00:26:39;99945.91;;;10.51;97.07
7668;BME280;3876;42.204;24.686;2023-02-28T00:29:06;99936.44;;;10.55;96.66
7668;BME280;3876;42.204;24.686;2023-02-28T00:31:32;99941.47;;;10.60;96.76
7668;BME280;3876;42.204;24.686;2023-02-28T00:34:01;99950.06;;;10.57;96.22
7668;BME280;3876;42.204;24.686;2023-02-28T00:36:27;99950.31;;;10.45;97.22
7668;BME280;3876;42.204;24.686;2023-02-28T00:38:54;99945.25;;;10.43;97.86
7668;BME280;3876;42.204;24.686;2023-02-28T00:41:21;99942.69;;;10.43;97.77
7668;BME280;3876;42.204;24.686;2023-02-28T00:43:48;99940.97;;;10.42;98.05
7668;BME280;3876;42.204;24.686;2023-02-28T00:46:14;99944.34;;;10.44;98.24
7668;BME280;3876;42.204;24.686;2023-02-28T00:48:41;99934.03;;;10.47;98.08
7668;BME280;3876;42.204;24.686;2023-02-28T00:51:10;99932.28;;;10.49;97.68
7668;BME280;3876;42.204;24.686;2023-02-28T00:53:36;99933.09;;;10.51;97.50
7668;BME280;3876;42.204;24.686;2023-02-28T00:56:04;99916.19;;;10.43;97.87
7668;BME280;3876;42.204;24.686;2023-02-28T00:58:31;99925.41;;;10.51;97.34
7668;BME280;3876;42.204;24.686;2023-02-28T01:00:58;99932.22;;;10.52;97.26
7668;BME280;3876;42.204;24.686;2023-02-28T01:03:25;99937.34;;;10.52;97.42
7668;BME280;3876;42.204;24.686;2023-02-28T01:05:52;99930.53;;;10.51;97.37
7668;BME280;3876;42.204;24.686;2023-02-28T01:08:20;99948.47;;;10.53;97.68
7668;BME280;3876;42.204;24.686;2023-02-28T01:10:47;99951.03;;;10.51;97.59
7668;BME280;3876;42.204;24.686;2023-02-28T01:13:15;99957.09;;;10.47;97.76
7668;BME280;3876;42.204;24.686;2023-02-28T01:15:46;99925.94;;;10.27;97.86
7668;BME280;3876;42.204;24.686;2023-02-28T01:18:15;99964.72;;;10.50;97.69
7668;BME280;3876;42.204;24.686;2023-02-28T01:20:42;99967.28;;;10.50;97.71
7668;BME280;3876;42.204;24.686;2023-02-28T01:23:09;99965.63;;;10.48;98.03
7668;BME280;3876;42.204;24.686;2023-02-28T01:25:38;99983.56;;;10.49;97.76
7668;BME280;3876;42.204;24.686;2023-02-28T01:28:05;99973.25;;;10.51;97.62
7668;BME280;3876;42.204;24.686;2023-02-28T01:30:32;99963.13;;;10.45;98.12
7668;BME280;3876;42.204;24.686;2023-02-28T01:32:59;99964.84;;;10.44;98.32
7668;BME280;3876;42.204;24.686;2023-02-28T01:35:26;99963.19;;;10.43;98.75
7668;BME280;3876;42.204;24.686;2023-02-28T01:37:53;99966.63;;;10.41;98.64
7668;BME280;3876;42.204;24.686;2023-02-28T01:40:19;99962.53;;;10.32;98.43
7668;BME280;3876;42.204;24.686;2023-02-28T01:42:48;99973.47;;;10.40;98.29
7668;BME280;3876;42.204;24.686;2023-02-28T01:45:22;99980.34;;;10.40;98.60
7668;BME280;3876;42.204;24.686;2023-02-28T01:47:55;99992.31;;;10.39;98.66
7668;BME280;3876;42.204;24.686;2023-02-28T01:50:24;99990.53;;;10.41;98.40
7668;BME280;3876;42.204;24.686;2023-02-28T01:52:54;99999.94;;;10.41;99.19
7668;BME280;3876;42.204;24.686;2023-02-28T01:55:24;100002.50;;;10.42;98.92
7668;BME280;3876;42.204;24.686;2023-02-28T01:57:58;99995.72;;;10.40;98.90
7668;BME280;3876;42.204;24.686;2023-02-28T02:00:26;100000.84;;;10.38;99.40
7668;BME280;3876;42.204;24.686;2023-02-28T02:02:55;100001.03;;;10.29;99.77
7668;BME280;3876;42.204;24.686;2023-02-28T02:05:25;100007.16;;;10.22;100.00
7668;BME280;3876;42.204;24.686;2023-02-28T02:07:55;100013.34;;;10.09;100.00
7668;BME280;3876;42.204;24.686;2023-02-28T02:10:27;100018.69;;;9.97;100.00
7668;BME280;3876;42.204;24.686;2023-02-28T02:13:10;100024.91;;;9.84;100.00
7668;BME280;3876;42.204;24.686;2023-02-28T02:15:43;100021.81;;;9.65;100.00
7668;BME280;3876;42.204;24.686;2023-02-28T02:18:19;100031.31;;;9.59;100.00
7668;BME280;3876;42.204;24.686;2023-02-28T02:21:19;100036.44;;;9.59;100.00
7668;BME280;3876;42.204;24.686;2023-02-28T02:24:34;100031.25;;;9.62;100.00
7668;BME280;3876;42.204;24.686;2023-02-28T02:27:25;100040.81;;;9.52;100.00
7668;BME280;3876;42.204;24.686;2023-02-28T02:33:09;100045.66;;;9.67;100.00
7668;BME280;3876;42.204;24.686;2023-02-28T02:35:47;100030.16;;;9.76;100.00
7668;BME280;3876;42.204;24.686;2023-02-28T02:38:21;100043.75;;;9.81;100.00
7668;BME280;3876;42.204;24.686;2023-02-28T02:40:58;100036.75;;;9.91;100.00
7668;BME280;3876;42.204;24.686;2023-02-28T02:43:31;100038.34;;;9.98;100.00
7668;BME280;3876;42.204;24.686;2023-02-28T02:46:03;100037.38;;;10.02;100.00
7668;BME280;3876;42.204;24.686;2023-02-28T02:48:33;100006.19;;;9.82;100.00
7668;BME280;3876;42.204;24.686;2023-02-28T02:51:05;100053.59;;;10.02;100.00
7668;BME280;3876;42.204;24.686;2023-02-28T02:53:41;100052.69;;;10.05;100.00
7668;BME280;3876;42.204;24.686;2023-02-28T02:56:08;100053.53;;;10.07;100.00
7668;BME280;3876;42.204;24.686;2023-02-28T02:58:40;100057.06;;;10.01;100.00
7668;BME280;3876;42.204;24.686;2023-02-28T03:01:11;100054.56;;;9.97;100.00
7668;BME280;3876;42.204;24.686;2023-02-28T03:03:39;100061.44;;;9.95;100.00
7668;BME280;3876;42.204;24.686;2023-02-28T03:06:07;100054.00;;;9.80;100.00
7668;BME280;3876;42.204;24.686;2023-02-28T03:08:37;100075.97;;;9.93;100.00
7668;BME280;3876;42.204;24.686;2023-02-28T03:11:05;100087.06;;;9.95;100.00
7668;BME280;3876;42.204;24.686;2023-02-28T03:13:49;100061.56;;;9.86;100.00
7668;BME280;3876;42.204;24.686;2023-02-28T03:16:36;100088.75;;;9.94;100.00
7668;BME280;3876;42.204;24.686;2023-02-28T03:19:38;100090.38;;;10.00;100.00
7668;BME280;3876;42.204;24.686;2023-02-28T03:22:18;100080.28;;;9.91;100.00
7668;BME280;3876;42.204;24.686;2023-02-28T03:24:50;100099.00;;;9.93;100.00
7668;BME280;3876;42.204;24.686;2023-02-28T03:27:24;100098.16;;;9.94;100.00
7668;BME280;3876;42.204;24.686;2023-02-28T03:30:00;100087.16;;;9.86;100.00
7668;BME280;3876;42.204;24.686;2023-02-28T03:32:31;100082.06;;;9.86;100.00
7668;BME280;3876;42.204;24.686;2023-02-28T03:35:03;100098.31;;;9.83;100.00
7668;BME280;3876;42.204;24.686;2023-02-28T03:37:38;100097.56;;;9.77;100.00
7668;BME280;3876;42.204;24.686;2023-02-28T03:40:09;100105.38;;;9.69;100.00
7668;BME280;3876;42.204;24.686;2023-02-28T03:42:41;100104.53;;;9.69;100.00
7668;BME280;3876;42.204;24.686;2023-02-28T03:45:12;100106.25;;;9.68;100.00
7668;BME280;3876;42.204;24.686;2023-02-28T03:47:45;100112.22;;;9.69;100.00
7668;BME280;3876;42.204;24.686;2023-02-28T03:50:17;100121.53;;;9.73;100.00
7668;BME280;3876;42.204;24.686;2023-02-28T03:52:48;100121.53;;;9.73;100.00
7668;BME280;3876;42.204;24.686;2023-02-28T03:55:16;100128.34;;;9.74;100.00
7668;BME280;3876;42.204;24.686;2023-02-28T03:57:52;100131.69;;;9.79;100.00
7668;BME280;3876;42.204;24.686;2023-02-28T04:00:27;100126.53;;;9.82;100.00
7668;BME280;3876;42.204;24.686;2023-02-28T04:02:54;100126.59;;;9.76;100.00
7668;BME280;3876;42.204;24.686;2023-02-28T04:05:22;100136.88;;;9.73;100.00
7668;BME280;3876;42.204;24.686;2023-02-28T04:07:51;100131.75;;;9.73;100.00
7668;BME280;3876;42.204;24.686;2023-02-28T04:10:18;100139.38;;;9.77;100.00
7668;BME280;3876;42.204;24.686;2023-02-28T04:12:44;100125.13;;;9.60;100.00
7668;BME280;3876;42.204;24.686;2023-02-28T04:15:11;100140.34;;;9.72;100.00
7668;BME280;3876;42.204;24.686;2023-02-28T04:17:38;100151.50;;;9.66;100.00
7668;BME280;3876;42.204;24.686;2023-02-28T04:20:06;100158.31;;;9.67;100.00
7668;BME280;3876;42.204;24.686;2023-02-28T04:22:35;100154.09;;;9.63;100.00
7668;BME280;3876;42.204;24.686;2023-02-28T04:25:05;100163.47;;;9.64;100.00
7668;BME280;3876;42.204;24.686;2023-02-28T04:27:32;100162.56;;;9.68;100.00
7668;BME280;3876;42.204;24.686;2023-02-28T04:29:59;100153.28;;;9.63;100.00
7668;BME280;3876;42.204;24.686;2023-02-28T04:32:25;100162.66;;;9.61;100.00
7668;BME280;3876;42.204;24.686;2023-02-28T04:34:52;100156.75;;;9.57;100.00
7668;BME280;3876;42.204;24.686;2023-02-28T04:37:19;100128.75;;;9.46;100.00
7668;BME280;3876;42.204;24.686;2023-02-28T04:39:46;100155.06;;;9.56;100.00
7668;BME280;3876;42.204;24.686;2023-02-28T04:42:14;100142.38;;;9.48;100.00
7668;BME280;3876;42.204;24.686;2023-02-28T04:44:41;100151.72;;;9.53;100.00
7668;BME280;3876;42.204;24.686;2023-02-28T04:47:08;100145.84;;;9.44;100.00
7668;BME280;3876;42.204;24.686;2023-02-28T04:49:35;100142.47;;;9.42;100.00
7668;BME280;3876;42.204;24.686;2023-02-28T04:52:02;100151.91;;;9.37;100.00
7668;BME280;3876;42.204;24.686;2023-02-28T04:54:29;100157.00;;;9.39;100.00
7668;BME280;3876;42.204;24.686;2023-02-28T04:56:55;100157.91;;;9.36;100.00
7668;BME280;3876;42.204;24.686;2023-02-28T04:59:24;100157.84;;;9.39;100.00
7668;BME280;3876;42.204;24.686;2023-02-28T05:01:51;100129.13;;;9.19;100.00
7668;BME280;3876;42.204;24.686;2023-02-28T05:04:17;100158.72;;;9.40;100.00
7668;BME280;3876;42.204;24.686;2023-02-28T05:06:44;100164.66;;;9.40;100.00
7668;BME280;3876;42.204;24.686;2023-02-28T05:09:11;100169.03;;;9.32;100.00
7668;BME280;3876;42.204;24.686;2023-02-28T05:11:38;100174.88;;;9.40;100.00
7668;BME280;3876;42.204;24.686;2023-02-28T05:14:06;100179.19;;;9.40;100.00
7668;BME280;3876;42.204;24.686;2023-02-28T05:16:35;100174.94;;;9.37;100.00
7668;BME280;3876;42.204;24.686;2023-02-28T05:19:01;100181.78;;;9.35;100.00
7668;BME280;3876;42.204;24.686;2023-02-28T05:21:30;100185.19;;;9.34;100.00
7668;BME280;3876;42.204;24.686;2023-02-28T05:24:03;100189.50;;;9.32;100.00
7668;BME280;3876;42.204;24.686;2023-02-28T05:26:34;100193.81;;;9.30;100.00
7668;BME280;3876;42.204;24.686;2023-02-28T05:29:01;100200.63;;;9.28;100.00
7668;BME280;3876;42.204;24.686;2023-02-28T05:31:28;100195.47;;;9.31;100.00
7668;BME280;3876;42.204;24.686;2023-02-28T05:33:56;100200.63;;;9.28;100.00
7668;BME280;3876;42.204;24.686;2023-02-28T05:36:24;100204.84;;;9.31;100.00
7668;BME280;3876;42.204;24.686;2023-02-28T05:38:51;100210.84;;;9.31;100.00
7668;BME280;3876;42.204;24.686;2023-02-28T05:41:19;100202.25;;;9.35;100.00
7668;BME280;3876;42.204;24.686;2023-02-28T05:43:46;100211.66;;;9.35;100.00
7668;BME280;3876;42.204;24.686;2023-02-28T05:46:13;100209.88;;;9.40;100.00
7668;BME280;3876;42.204;24.686;2023-02-28T05:48:41;100215.06;;;9.37;100.00
7668;BME280;3876;42.204;24.686;2023-02-28T05:51:10;100214.13;;;9.42;100.00
7668;BME280;3876;42.204;24.686;2023-02-28T05:53:37;100221.00;;;9.37;100.00
7668;BME280;3876;42.204;24.686;2023-02-28T05:56:04;100223.50;;;9.42;100.00
7668;BME280;3876;42.204;24.686;2023-02-28T05:58:31;100220.13;;;9.40;100.00
7668;BME280;3876;42.204;24.686;2023-02-28T06:00:59;100220.91;;;9.43;100.00
7668;BME280;3876;42.204;24.686;2023-02-28T06:03:27;100222.66;;;9.41;100.00
7668;BME280;3876;42.204;24.686;2023-02-28T06:05:54;100227.78;;;9.41;100.00
7668;BME280;3876;42.204;24.686;2023-02-28T06:08:22;100239.66;;;9.45;100.00
7668;BME280;3876;42.204;24.686;2023-02-28T06:10:48;100243.84;;;9.51;100.00
7668;BME280;3876;42.204;24.686;2023-02-28T06:13:15;100240.47;;;9.49;100.00
7668;BME280;3876;42.204;24.686;2023-02-28T06:15:42;100244.72;;;9.52;100.00
7668;BME280;3876;42.204;24.686;2023-02-28T06:18:09;100254.09;;;9.53;100.00
7668;BME280;3876;42.204;24.686;2023-02-28T06:20:35;100256.69;;;9.49;100.00
7668;BME280;3876;42.204;24.686;2023-02-28T06:23:02;100246.38;;;9.56;100.00
7668;BME280;3876;42.204;24.686;2023-02-28T06:25:30;100253.16;;;9.57;100.00
7668;BME280;3876;42.204;24.686;2023-02-28T06:27:57;100252.38;;;9.50;100.00
7668;BME280;3876;42.204;24.686;2023-02-28T06:30:24;100254.16;;;9.46;100.00
7668;BME280;3876;42.204;24.686;2023-02-28T06:32:52;100250.72;;;9.47;100.00
7668;BME280;3876;42.204;24.686;2023-02-28T06:35:19;100260.84;;;9.57;100.00
7668;BME280;3876;42.204;24.686;2023-02-28T06:37:46;100265.22;;;9.48;100.00
7668;BME280;3876;42.204;24.686;2023-02-28T06:40:14;100262.66;;;9.48;100.00
7668;BME280;3876;42.204;24.686;2023-02-28T06:42:42;100248.25;;;9.41;100.00
7668;BME280;3876;42.204;24.686;2023-02-28T06:45:10;100262.69;;;9.45;100.00
7668;BME280;3876;42.204;24.686;2023-02-28T06:47:37;100253.31;;;9.44;100.00
7668;BME280;3876;42.204;24.686;2023-02-28T06:50:06;100254.25;;;9.39;100.00
7668;BME280;3876;42.204;24.686;2023-02-28T06:52:33;100255.09;;;9.39;100.00
7668;BME280;3876;42.204;24.686;2023-02-28T06:55:03;100259.34;;;9.42;100.00
7668;BME280;3876;42.204;24.686;2023-02-28T06:57:31;100265.38;;;9.36;100.00
7668;BME280;3876;42.204;24.686;2023-02-28T07:00:00;100279.78;;;9.43;100.00
7668;BME280;3876;42.204;24.686;2023-02-28T07:02:28;100279.75;;;9.46;100.00
7668;BME280;3876;42.204;24.686;2023-02-28T07:04:55;100281.41;;;9.52;100.00
7668;BME280;3876;42.204;24.686;2023-02-28T07:07:21;100283.97;;;9.50;100.00
7668;BME280;3876;42.204;24.686;2023-02-28T07:09:48;100284.78;;;9.54;100.00
7668;BME280;3876;42.204;24.686;2023-02-28T07:12:15;100288.22;;;9.53;100.00
7668;BME280;3876;42.204;24.686;2023-02-28T07:14:42;100279.72;;;9.48;100.00
7668;BME280;3876;42.204;24.686;2023-02-28T07:17:10;100287.41;;;9.49;100.00
7668;BME280;3876;42.204;24.686;2023-02-28T07:19:38;100283.19;;;9.45;100.00
7668;BME280;3876;42.204;24.686;2023-02-28T07:22:05;100277.97;;;9.50;100.00
7668;BME280;3876;42.204;24.686;2023-02-28T07:24:32;100279.53;;;9.63;100.00
7668;BME280;3876;42.204;24.686;2023-02-28T07:26:58;100290.53;;;9.70;100.00
7668;BME280;3876;42.204;24.686;2023-02-28T07:29:26;100293.97;;;9.72;100.00
7668;BME280;3876;42.204;24.686;2023-02-28T07:31:53;100301.75;;;9.63;100.00
7668;BME280;3876;42.204;24.686;2023-02-28T07:34:22;100294.13;;;9.57;100.00
7668;BME280;3876;42.204;24.686;2023-02-28T07:36:49;100293.25;;;9.58;100.00
7668;BME280;3876;42.204;24.686;2023-02-28T07:39:19;100298.47;;;9.52;100.00
7668;BME280;3876;42.204;24.686;2023-02-28T07:41:45;100305.19;;;9.60;100.00
7668;BME280;3876;42.204;24.686;2023-02-28T07:44:13;100309.44;;;9.60;100.00
7668;BME280;3876;42.204;24.686;2023-02-28T07:46:40;100314.59;;;9.57;100.00
7668;BME280;3876;42.204;24.686;2023-02-28T07:49:07;100299.28;;;9.54;100.00
7668;BME280;3876;42.204;24.686;2023-02-28T07:51:35;100301.03;;;9.52;100.00
7668;BME280;3876;42.204;24.686;2023-02-28T07:54:02;100290.75;;;9.56;100.00
7668;BME280;3876;42.204;24.686;2023-02-28T07:56:29;100289.81;;;9.62;100.00
7668;BME280;3876;42.204;24.686;2023-02-28T07:58:56;100300.72;;;9.76;100.00
7668;BME280;3876;42.204;24.686;2023-02-28T08:01:23;100291.44;;;9.69;100.00
7668;BME280;3876;42.204;24.686;2023-02-28T08:03:50;100289.78;;;9.63;100.00
7668;BME280;3876;42.204;24.686;2023-02-28T08:06:20;100279.44;;;9.72;100.00
7668;BME280;3876;42.204;24.686;2023-02-28T08:08:49;100303.19;;;9.83;100.00
7668;BME280;3876;42.204;24.686;2023-02-28T08:11:16;100294.00;;;9.69;100.00
7668;BME280;3876;42.204;24.686;2023-02-28T08:13:44;100297.59;;;9.53;100.00
7668;BME280;3876;42.204;24.686;2023-02-28T08:16:12;100305.22;;;9.57;100.00
7668;BME280;3876;42.204;24.686;2023-02-28T08:18:42;100306.88;;;9.63;100.00
7668;BME280;3876;42.204;24.686;2023-02-28T08:21:10;100316.28;;;9.61;100.00
7668;BME280;3876;42.204;24.686;2023-02-28T08:23:37;100309.56;;;9.50;100.00
7668;BME280;3876;42.204;24.686;2023-02-28T08:26:05;100307.00;;;9.52;100.00
7668;BME280;3876;42.204;24.686;2023-02-28T08:28:32;100312.00;;;9.60;100.00
7668;BME280;3876;42.204;24.686;2023-02-28T08:30:59;100301.03;;;9.52;100.00
7668;BME280;3876;42.204;24.686;2023-02-28T08:33:27;100304.50;;;9.44;100.00
7668;BME280;3876;42.204;24.686;2023-02-28T08:35:54;100300.97;;;9.55;100.00
7668;BME280;3876;42.204;24.686;2023-02-28T08:38:21;100305.22;;;9.57;100.00
7668;BME280;3876;42.204;24.686;2023-02-28T08:40:48;100301.72;;;9.64;100.00
7668;BME280;3876;42.204;24.686;2023-02-28T08:43:16;100312.94;;;9.56;100.00
7668;BME280;3876;42.204;24.686;2023-02-28T08:45:43;100307.03;;;9.49;100.00
7668;BME280;3876;42.204;24.686;2023-02-28T08:48:10;100306.19;;;9.48;100.00
7668;BME280;3876;42.204;24.686;2023-02-28T08:50:36;100310.41;;;9.53;100.00
7668;BME280;3876;42.204;24.686;2023-02-28T08:53:03;100314.56;;;9.61;100.00
7668;BME280;3876;42.204;24.686;2023-02-28T08:55:30;100317.97;;;9.62;100.00
7668;BME280;3876;42.204;24.686;2023-02-28T08:57:57;100321.47;;;9.55;100.00
7668;BME280;3876;42.204;24.686;2023-02-28T09:00:26;100316.44;;;9.45;100.00
7668;BME280;3876;42.204;24.686;2023-02-28T09:02:53;100322.28;;;9.58;100.00
7668;BME280;3876;42.204;24.686;2023-02-28T09:05:20;100325.69;;;9.57;100.00
7668;BME280;3876;42.204;24.686;2023-02-28T09:07:46;100316.34;;;9.55;100.00
7668;BME280;3876;42.204;24.686;2023-02-28T09:10:13;100320.59;;;9.56;100.00
7668;BME280;3876;42.204;24.686;2023-02-28T09:12:40;100312.84;;;9.62;100.00
7668;BME280;3876;42.204;24.686;2023-02-28T09:15:08;100321.47;;;9.55;100.00
7668;BME280;3876;42.204;24.686;2023-02-28T09:17:37;100321.38;;;9.61;100.00
7668;BME280;3876;42.204;24.686;2023-02-28T09:20:05;100321.47;;;9.56;100.00
7668;BME280;3876;42.204;24.686;2023-02-28T09:22:32;100316.31;;;9.58;100.00
7668;BME280;3876;42.204;24.686;2023-02-28T09:24:59;100316.22;;;9.65;100.00
7668;BME280;3876;42.204;24.686;2023-02-28T09:27:26;100304.28;;;9.66;100.00
7668;BME280;3876;42.204;24.686;2023-02-28T09:29:52;100303.28;;;9.76;100.00
7668;BME280;3876;42.204;24.686;2023-02-28T09:32:19;100297.22;;;9.83;100.00
7668;BME280;3876;42.204;24.686;2023-02-28T09:34:47;100297.03;;;9.98;100.00
7668;BME280;3876;42.204;24.686;2023-02-28T09:37:14;100290.22;;;9.95;100.00
7668;BME280;3876;42.204;24.686;2023-02-28T09:39:41;100291.97;;;9.92;100.00
7668;BME280;3876;42.204;24.686;2023-02-28T09:42:18;100288.66;;;9.84;100.00
7668;BME280;3876;42.204;24.686;2023-02-28T09:44:48;100287.09;;;9.74;100.00
7668;BME280;3876;42.204;24.686;2023-02-28T09:47:21;100290.47;;;9.76;100.00
7668;BME280;3876;42.204;24.686;2023-02-28T09:49:57;100293.03;;;9.76;100.00
7668;BME280;3876;42.204;24.686;2023-02-28T09:52:28;100292.16;;;9.77;100.00
7668;BME280;3876;42.204;24.686;2023-02-28T09:54:55;100289.66;;;9.75;100.00
7668;BME280;3876;42.204;24.686;2023-02-28T09:57:32;100293.97;;;9.72;100.00
7668;BME280;3876;42.204;24.686;2023-02-28T10:00:07;100289.69;;;9.71;100.00
7668;BME280;3876;42.204;24.686;2023-02-28T10:05:50;100265.84;;;9.67;100.00
7668;BME280;3876;42.204;24.686;2023-02-28T10:08:23;100266.66;;;9.71;100.00
7668;BME280;3876;42.204;24.686;2023-02-28T10:10:55;100268.19;;;9.84;100.00
7668;BME280;3876;42.204;24.686;2023-02-28T10:13:27;100256.19;;;9.86;100.00
7668;BME280;3876;42.204;24.686;2023-02-28T10:16:01;100258.66;;;9.92;100.00
7668;BME280;3876;42.204;24.686;2023-02-28T10:18:38;100263.81;;;9.90;100.00
7668;BME280;3876;42.204;24.686;2023-02-28T10:21:16;100262.94;;;9.93;100.00
7668;BME280;3876;42.204;24.686;2023-02-28T10:23:45;100262.03;;;9.95;100.00
7668;BME280;3876;42.204;24.686;2023-02-28T10:26:14;100265.72;;;9.76;100.00
7668;BME280;3876;42.204;24.686;2023-02-28T10:28:42;100258.84;;;9.81;100.00
7668;BME280;3876;42.204;24.686;2023-02-28T10:31:11;100249.44;;;9.82;100.00
7668;BME280;3876;42.204;24.686;2023-02-28T10:33:41;100245.81;;;9.98;100.00
7668;BME280;3876;42.204;24.686;2023-02-28T10:36:14;100225.31;;;9.98;100.00
7668;BME280;3876;42.204;24.686;2023-02-28T10:38:43;100248.97;;;10.15;100.00
7668;BME280;3876;42.204;24.686;2023-02-28T10:41:12;100247.38;;;10.05;100.00
7668;BME280;3876;42.204;24.686;2023-02-28T10:43:41;100249.81;;;10.16;100.00
7668;BME280;3876;42.204;24.686;2023-02-28T10:46:13;100263.56;;;10.10;100.00
7668;BME280;3876;42.204;24.686;2023-02-28T10:49:01;100250.88;;;10.01;100.00
7668;BME280;3876;42.204;24.686;2023-02-28T10:51:37;100244.06;;;10.00;100.00
7668;BME280;3876;42.204;24.686;2023-02-28T10:54:04;100240.75;;;9.92;100.00
7668;BME280;3876;42.204;24.686;2023-02-28T10:56:32;100236.41;;;9.95;100.00
7668;BME280;3876;42.204;24.686;2023-02-28T10:59:00;100236.59;;;9.85;100.00
7668;BME280;3876;42.204;24.686;2023-02-28T11:01:36;100228.19;;;9.74;100.00
7668;BME280;3876;42.204;24.686;2023-02-28T11:04:17;100210.22;;;9.77;100.00
7668;BME280;3876;42.204;24.686;2023-02-28T11:06:46;100223.78;;;9.85;100.00
7668;BME280;3876;42.204;24.686;2023-02-28T11:09:20;100235.75;;;9.83;100.00
7668;BME280;3876;42.204;24.686;2023-02-28T11:11:49;100235.03;;;9.73;100.00
7668;BME280;3876;42.204;24.686;2023-02-28T11:14:20;100228.16;;;9.77;100.00
7668;BME280;3876;42.204;24.686;2023-02-28T11:16:48;100225.69;;;9.72;100.00
7668;BME280;3876;42.204;24.686;2023-02-28T11:19:19;100221.38;;;9.74;100.00
7668;BME280;3876;42.204;24.686;2023-02-28T11:21:53;100216.97;;;9.82;100.00
7668;BME280;3876;42.204;24.686;2023-02-28T11:24:23;100222.84;;;9.90;100.00
7668;BME280;3876;42.204;24.686;2023-02-28T11:26:51;100217.00;;;9.81;100.00
7668;BME280;3876;42.204;24.686;2023-02-28T11:29:20;100221.31;;;9.79;100.00
7668;BME280;3876;42.204;24.686;2023-02-28T11:32:09;100222.13;;;9.81;100.00
7668;BME280;3876;42.204;24.686;2023-02-28T11:34:39;100227.44;;;9.69;100.00
7668;BME280;3876;42.204;24.686;2023-02-28T11:37:12;100222.31;;;9.69;100.00
7668;BME280;3876;42.204;24.686;2023-02-28T11:39:39;100221.41;;;9.71;100.00
7668;BME280;3876;42.204;24.686;2023-02-28T11:42:27;100213.81;;;9.64;100.00
7668;BME280;3876;42.204;24.686;2023-02-28T11:45:08;100220.69;;;9.62;100.00
7668;BME280;3876;42.204;24.686;2023-02-28T11:47:43;100206.28;;;9.56;100.00
7668;BME280;3876;42.204;24.686;2023-02-28T11:50:27;100199.41;;;9.57;100.00
7668;BME280;3876;42.204;24.686;2023-02-28T11:53:05;100199.34;;;9.61;100.00
7668;BME280;3876;42.204;24.686;2023-02-28T11:55:38;100197.53;;;9.71;100.00
7668;BME280;3876;42.204;24.686;2023-02-28T11:58:16;100207.72;;;9.74;100.00
7668;BME280;3876;42.204;24.686;2023-02-28T12:01:25;100200.03;;;9.74;100.00
7668;BME280;3876;42.204;24.686;2023-02-28T12:04:04;100200.97;;;9.68;100.00
7668;BME280;3876;42.204;24.686;2023-02-28T12:06:42;100196.84;;;9.57;100.00
7668;BME280;3876;42.204;24.686;2023-02-28T12:09:26;100198.59;;;9.55;100.00
7668;BME280;3876;42.204;24.686;2023-02-28T12:12:00;100202.19;;;9.41;100.00
7668;BME280;3876;42.204;24.686;2023-02-28T12:14:52;100198.69;;;9.48;100.00
7668;BME280;3876;42.204;24.686;2023-02-28T12:17:43;100201.06;;;9.61;100.00
7668;BME280;3876;42.204;24.686;2023-02-28T12:20:20;100193.47;;;9.55;100.00
7668;BME280;3876;42.204;24.686;2023-02-28T12:22:59;100190.97;;;9.53;100.00
7668;BME280;3876;42.204;24.686;2023-02-28T12:28:34;100196.16;;;9.44;100.00
7668;BME280;3876;42.204;24.686;2023-02-28T12:31:08;100197.03;;;9.44;100.00
7668;BME280;3876;42.204;24.686;2023-02-28T12:33:40;100186.78;;;9.44;100.00
7668;BME280;3876;42.204;24.686;2023-02-28T12:36:10;100178.38;;;9.36;100.00
7668;BME280;3876;42.204;24.686;2023-02-28T12:38:43;100184.25;;;9.41;100.00
7668;BME280;3876;42.204;24.686;2023-02-28T12:41:15;100176.63;;;9.38;100.00
7668;BME280;3876;42.204;24.686;2023-02-28T12:43:46;100184.31;;;9.38;100.00
7668;BME280;3876;42.204;24.686;2023-02-28T12:46:19;100191.94;;;9.41;100.00
7668;BME280;3876;42.204;24.686;2023-02-28T12:48:52;100177.56;;;9.31;100.00
7668;BME280;3876;42.204;24.686;2023-02-28T12:51:21;100179.22;;;9.37;100.00
7668;BME280;3876;42.204;24.686;2023-02-28T12:53:54;100183.56;;;9.30;100.00
7668;BME280;3876;42.204;24.686;2023-02-28T12:56:33;100177.66;;;9.27;100.00
7668;BME280;3876;42.204;24.686;2023-02-28T12:59:07;100178.41;;;9.33;100.00
7668;BME280;3876;42.204;24.686;2023-02-28T13:02:06;100179.16;;;9.43;100.00
7668;BME280;3876;42.204;24.686;2023-02-28T13:08:06;100183.44;;;9.39;100.00
7668;BME280;3876;42.204;24.686;2023-02-28T13:10:43;100177.59;;;9.28;100.00
7668;BME280;3876;42.204;24.686;2023-02-28T13:13:19;100171.63;;;9.29;100.00
7668;BME280;3876;42.204;24.686;2023-02-28T13:16:04;100169.94;;;9.28;100.00
7668;BME280;3876;42.204;24.686;2023-02-28T13:18:36;100169.97;;;9.25;100.00
7668;BME280;3876;42.204;24.686;2023-02-28T13:21:06;100161.44;;;9.26;100.00
7668;BME280;3876;42.204;24.686;2023-02-28T13:23:57;100164.81;;;9.28;100.00
7668;BME280;3876;42.204;24.686;2023-02-28T13:29:32;100164.03;;;9.23;100.00
7668;BME280;3876;42.204;24.686;2023-02-28T13:35:38;100165.88;;;9.14;100.00
7668;BME280;3876;42.204;24.686;2023-02-28T13:38:38;100165.00;;;9.13;100.00
7668;BME280;3876;42.204;24.686;2023-02-28T13:44:22;100166.69;;;9.16;100.00